createdAt,value
2018-01-14T00:02:01.662Z,77.77
2018-01-14T00:04:29.205Z,77.16
2018-01-14T00:06:56.726Z,77.31
2018-01-14T00:09:24.246Z,77.25
2018-01-14T00:11:51.762Z,77.32
2018-01-14T00:14:19.267Z,78.11
2018-01-14T00:16:46.763Z,77.16
2018-01-14T00:19:14.277Z,77.92
2018-01-14T00:21:41.783Z,77.12
2018-01-14T00:24:09.298Z,76.91
2018-01-14T00:26:36.807Z,76.58
2018-01-14T00:29:04.311Z,75.87
2018-01-14T00:31:31.926Z,76.25
2018-01-14T00:33:59.439Z,76.77
2018-01-14T00:36:26.957Z,77.28
2018-01-14T00:38:54.483Z,76.73
2018-01-14T00:41:21.978Z,76.86
2018-01-14T00:43:49.504Z,77.12
2018-01-14T00:46:17.014Z,77.23
2018-01-14T00:48:44.520Z,77.92
2018-01-14T00:51:12.027Z,77.91
2018-01-14T00:53:39.567Z,77.94
2018-01-14T00:56:07.066Z,78.00
2018-01-14T00:58:34.588Z,76.93
2018-01-14T01:01:02.144Z,77.29
2018-01-14T01:03:29.651Z,77.46
2018-01-14T01:05:57.178Z,77.17
2018-01-14T01:08:24.692Z,77.29
2018-01-14T01:10:52.197Z,77.76
2018-01-14T01:13:19.710Z,77.85
2018-01-14T01:15:47.217Z,77.40
2018-01-14T01:18:14.718Z,77.45
2018-01-14T01:20:42.227Z,77.31
2018-01-14T01:23:09.742Z,77.24
2018-01-14T01:25:37.262Z,77.47
2018-01-14T01:28:04.775Z,77.36
2018-01-14T01:30:32.287Z,76.85
2018-01-14T01:32:59.791Z,76.66
2018-01-14T01:35:27.303Z,77.54
2018-01-14T01:37:54.810Z,77.65
2018-01-14T01:40:22.311Z,77.95
2018-01-14T01:42:49.842Z,77.51
2018-01-14T01:45:17.342Z,77.34
2018-01-14T01:47:44.854Z,76.15
2018-01-14T01:50:12.359Z,76.21
2018-01-14T01:52:39.882Z,77.10
2018-01-14T01:55:07.391Z,77.46
2018-01-14T01:57:34.898Z,78.20
2018-01-14T02:00:02.410Z,77.57
2018-01-14T02:02:29.912Z,78.18
2018-01-14T02:04:57.452Z,77.86
2018-01-14T02:07:24.985Z,78.03
2018-01-14T02:09:52.494Z,77.49
2018-01-14T02:12:20.008Z,77.61
2018-01-14T02:14:47.520Z,77.63
2018-01-14T02:17:15.020Z,77.32
2018-01-14T02:19:42.883Z,78.78
2018-01-14T02:22:10.391Z,78.84
2018-01-14T02:24:37.898Z,77.59
2018-01-14T02:27:05.406Z,77.74
2018-01-14T02:29:32.918Z,77.73
2018-01-14T02:32:00.427Z,77.65
2018-01-14T02:34:27.934Z,77.52
2018-01-14T02:36:55.453Z,77.41
2018-01-14T02:39:22.970Z,77.29
2018-01-14T02:41:50.507Z,77.72
2018-01-14T02:44:18.015Z,77.63
2018-01-14T02:46:45.554Z,78.06
2018-01-14T02:49:13.082Z,77.66
2018-01-14T02:51:40.623Z,77.44
2018-01-14T02:54:08.147Z,77.56
2018-01-14T02:56:35.680Z,77.39
2018-01-14T02:59:03.174Z,77.33
2018-01-14T03:01:30.706Z,76.58
2018-01-14T03:03:58.257Z,77.24
2018-01-14T03:06:25.751Z,77.05
2018-01-14T03:08:53.293Z,77.26
2018-01-14T03:11:20.814Z,77.85
2018-01-14T03:13:48.332Z,77.82
2018-01-14T03:16:15.865Z,78.42
2018-01-14T03:18:43.406Z,78.70
2018-01-14T03:21:10.906Z,79.10
2018-01-14T03:23:38.438Z,79.50
2018-01-14T03:26:05.930Z,80.08
2018-01-14T03:28:33.514Z,80.83
2018-01-14T03:31:01.735Z,81.17
2018-01-14T03:33:29.242Z,81.71
2018-01-14T03:35:56.750Z,81.87
2018-01-14T03:38:24.292Z,82.20
2018-01-14T03:40:51.813Z,82.37
2018-01-14T03:43:19.327Z,81.02
2018-01-14T03:45:46.838Z,80.92
2018-01-14T03:48:14.354Z,80.91
2018-01-14T03:50:41.869Z,81.25
2018-01-14T03:53:09.378Z,81.63
2018-01-14T03:55:36.902Z,81.55
2018-01-14T03:58:04.425Z,81.33
2018-01-14T04:00:31.952Z,81.82
2018-01-14T04:02:59.479Z,82.03
2018-01-14T04:05:26.978Z,81.97
2018-01-14T04:07:54.502Z,82.05
2018-01-14T04:10:21.999Z,81.72
2018-01-14T04:12:49.521Z,81.35
2018-01-14T04:15:17.018Z,82.28
2018-01-14T04:17:44.528Z,81.30
2018-01-14T04:20:12.048Z,80.79
2018-01-14T04:22:39.601Z,80.68
2018-01-14T04:25:07.147Z,81.32
2018-01-14T04:27:34.658Z,80.85
2018-01-14T04:30:02.176Z,80.79
2018-01-14T04:32:29.680Z,80.76
2018-01-14T04:34:57.192Z,80.62
2018-01-14T04:37:24.759Z,81.49
2018-01-14T04:39:52.315Z,81.29
2018-01-14T04:42:19.842Z,80.96
2018-01-14T04:44:47.356Z,80.34
2018-01-14T04:47:14.872Z,81.08
2018-01-14T04:49:42.382Z,80.43
2018-01-14T04:52:09.890Z,79.98
2018-01-14T04:54:37.393Z,80.30
2018-01-14T04:57:04.906Z,80.37
2018-01-14T04:59:32.410Z,80.67
2018-01-14T05:01:59.922Z,81.39
2018-01-14T05:04:27.421Z,81.33
2018-01-14T05:06:54.938Z,81.31
2018-01-14T05:09:22.442Z,81.56
2018-01-14T05:11:49.970Z,82.56
2018-01-14T05:14:17.482Z,82.86
2018-01-14T05:16:45.017Z,83.36
2018-01-14T05:19:12.556Z,84.32
2018-01-14T05:21:40.117Z,84.31
2018-01-14T05:24:07.619Z,84.61
2018-01-14T05:26:35.154Z,85.11
2018-01-14T05:29:02.667Z,85.18
2018-01-14T05:31:30.170Z,85.80
2018-01-14T05:33:57.711Z,86.49
2018-01-14T05:36:25.218Z,86.59
2018-01-14T05:38:52.735Z,87.00
2018-01-14T05:41:20.234Z,87.84
2018-01-14T05:43:47.760Z,87.66
2018-01-14T05:46:15.270Z,88.15
2018-01-14T05:48:42.785Z,88.28
2018-01-14T05:51:10.283Z,88.16
2018-01-14T05:53:37.794Z,88.38
2018-01-14T05:56:05.294Z,88.90
2018-01-14T05:58:33.134Z,89.20
2018-01-14T06:01:00.699Z,89.59
2018-01-14T06:03:28.222Z,89.67
2018-01-14T06:05:55.742Z,89.63
2018-01-14T06:08:23.258Z,89.96
2018-01-14T06:10:50.780Z,90.23
2018-01-14T06:13:18.286Z,90.17
2018-01-14T06:15:45.802Z,90.16
2018-01-14T06:18:13.314Z,90.51
2018-01-14T06:20:40.856Z,90.60
2018-01-14T06:23:08.374Z,91.07
2018-01-14T06:25:35.899Z,90.87
2018-01-14T06:28:03.410Z,91.29
2018-01-14T06:30:30.921Z,91.03
2018-01-14T06:32:58.426Z,91.59
2018-01-14T06:35:25.952Z,91.57
2018-01-14T06:37:53.463Z,91.93
2018-01-14T06:40:20.998Z,91.97
2018-01-14T06:42:49.428Z,92.17
2018-01-14T06:45:16.944Z,92.54
2018-01-14T06:47:44.458Z,92.38
2018-01-14T06:50:11.987Z,92.47
2018-01-14T06:52:39.510Z,93.08
2018-01-14T06:55:07.049Z,93.04
2018-01-14T06:57:34.580Z,92.73
2018-01-14T07:00:02.095Z,92.80
2018-01-14T07:02:29.650Z,93.17
2018-01-14T07:04:57.155Z,92.92
2018-01-14T07:07:24.724Z,93.19
2018-01-14T07:09:52.226Z,93.35
2018-01-14T07:12:19.759Z,93.35
2018-01-14T07:14:47.262Z,93.52
2018-01-14T07:17:14.810Z,93.24
2018-01-14T07:19:42.358Z,93.16
2018-01-14T07:22:09.888Z,93.19
2018-01-14T07:24:37.416Z,92.39
2018-01-14T07:27:04.937Z,93.03
2018-01-14T07:29:32.469Z,92.63
2018-01-14T07:31:59.996Z,92.67
2018-01-14T07:34:27.551Z,92.71
2018-01-14T07:36:55.114Z,92.69
2018-01-14T07:39:22.628Z,92.73
2018-01-14T07:41:50.172Z,93.16
2018-01-14T07:44:17.706Z,92.79
2018-01-14T07:46:45.302Z,92.95
2018-01-14T07:49:12.811Z,93.26
2018-01-14T07:51:40.359Z,93.13
2018-01-14T07:54:07.879Z,93.74
2018-01-14T07:56:35.448Z,93.57
2018-01-14T07:59:02.954Z,93.14
2018-01-14T08:01:30.475Z,93.28
2018-01-14T08:03:57.983Z,92.45
2018-01-14T08:06:25.495Z,92.15
2018-01-14T08:08:53.028Z,91.70
2018-01-14T08:11:20.569Z,91.74
2018-01-14T08:13:48.090Z,90.79
2018-01-14T08:16:15.601Z,90.06
2018-01-14T08:18:43.118Z,89.98
2018-01-14T08:21:10.634Z,89.67
2018-01-14T08:23:38.151Z,89.11
2018-01-14T08:26:05.661Z,88.78
2018-01-14T08:28:33.168Z,88.74
2018-01-14T08:31:00.686Z,89.30
2018-01-14T08:33:28.254Z,89.15
2018-01-14T08:35:55.759Z,88.20
2018-01-14T08:38:23.334Z,88.30
2018-01-14T08:40:50.842Z,89.20
2018-01-14T08:43:18.502Z,89.51
2018-01-14T08:45:46.002Z,89.24
2018-01-14T08:48:13.506Z,89.14
2018-01-14T08:50:41.010Z,88.90
2018-01-14T08:53:08.517Z,87.18
2018-01-14T08:55:36.018Z,86.71
2018-01-14T08:58:04.076Z,87.49
2018-01-14T09:00:31.585Z,87.29
2018-01-14T09:02:59.182Z,87.93
2018-01-14T09:05:26.700Z,86.88
2018-01-14T09:07:54.198Z,86.31
2018-01-14T09:10:21.736Z,84.82
2018-01-14T09:12:49.246Z,83.93
2018-01-14T09:15:16.754Z,84.14
2018-01-14T09:17:44.297Z,83.19
2018-01-14T09:20:11.838Z,83.30
2018-01-14T09:22:39.346Z,84.15
2018-01-14T09:25:06.854Z,84.58
2018-01-14T09:27:34.378Z,86.55
2018-01-14T09:30:01.896Z,86.82
2018-01-14T09:32:29.414Z,86.37
2018-01-14T09:34:56.914Z,85.85
2018-01-14T09:37:24.436Z,84.31
2018-01-14T09:39:51.983Z,82.17
2018-01-14T09:42:19.480Z,83.16
2018-01-14T09:44:47.002Z,81.39
2018-01-14T09:47:14.520Z,81.13
2018-01-14T09:49:42.031Z,82.89
2018-01-14T09:52:09.566Z,82.50
2018-01-14T09:54:38.282Z,83.25
2018-01-14T09:57:05.807Z,83.91
2018-01-14T09:59:33.316Z,81.97
2018-01-14T10:02:00.840Z,83.50
2018-01-14T10:04:28.358Z,83.71
2018-01-14T10:06:55.894Z,82.40
2018-01-14T10:09:23.451Z,83.89
2018-01-14T10:11:50.982Z,84.29
2018-01-14T10:14:18.520Z,84.59
2018-01-14T10:16:46.052Z,85.47
2018-01-14T10:19:13.554Z,86.60
2018-01-14T10:21:41.098Z,87.79
2018-01-14T10:24:08.605Z,87.81
2018-01-14T10:26:36.135Z,87.46
2018-01-14T10:29:03.664Z,87.45
2018-01-14T10:31:31.178Z,88.06
2018-01-14T10:33:58.726Z,88.50
2018-01-14T10:36:27.143Z,88.66
2018-01-14T10:38:54.650Z,88.39
2018-01-14T10:41:22.171Z,88.43
2018-01-14T10:43:49.747Z,88.33
2018-01-14T10:46:17.274Z,88.48
2018-01-14T10:48:44.794Z,87.95
2018-01-14T10:51:12.324Z,88.62
2018-01-14T10:53:40.191Z,87.83
2018-01-14T10:56:07.727Z,88.40
2018-01-14T10:58:35.232Z,88.14
2018-01-14T11:01:02.810Z,88.14
2018-01-14T11:03:30.330Z,88.06
2018-01-14T11:05:57.841Z,88.90
2018-01-14T11:08:27.718Z,88.41
2018-01-14T11:10:55.779Z,88.18
2018-01-14T11:13:23.301Z,88.41
2018-01-14T11:15:50.817Z,88.17
2018-01-14T11:18:18.336Z,88.21
2018-01-14T11:20:45.862Z,88.03
2018-01-14T11:23:13.415Z,87.67
2018-01-14T11:25:41.000Z,88.18
2018-01-14T11:28:08.534Z,87.78
2018-01-14T11:30:36.057Z,88.05
2018-01-14T11:33:03.787Z,88.08
2018-01-14T11:35:31.320Z,87.64
2018-01-14T11:37:58.833Z,88.59
2018-01-14T11:40:26.358Z,88.24
2018-01-14T11:42:53.877Z,88.17
2018-01-14T11:45:21.398Z,87.86
2018-01-14T11:47:48.927Z,88.32
2018-01-14T11:50:16.470Z,87.79
2018-01-14T11:52:44.015Z,87.99
2018-01-14T11:55:11.522Z,88.45
2018-01-14T11:57:39.034Z,88.31
2018-01-14T12:00:06.593Z,87.89
2018-01-14T12:02:34.083Z,88.16
2018-01-14T12:05:01.593Z,88.38
2018-01-14T12:07:29.094Z,88.11
2018-01-14T12:09:56.618Z,87.96
2018-01-14T12:12:24.142Z,87.80
2018-01-14T12:14:51.651Z,87.96
2018-01-14T12:17:20.101Z,87.89
2018-01-14T12:19:48.218Z,87.51
2018-01-14T12:22:15.826Z,87.89
2018-01-14T12:24:43.358Z,87.02
2018-01-14T12:27:10.866Z,87.12
2018-01-14T12:29:38.397Z,87.18
2018-01-14T12:32:05.924Z,87.37
2018-01-14T12:34:38.400Z,86.97
2018-01-14T12:37:05.942Z,87.16
2018-01-14T12:39:33.486Z,87.97
2018-01-14T12:42:01.011Z,87.88
2018-01-14T12:44:28.543Z,87.30
2018-01-14T12:46:56.060Z,87.31
2018-01-14T12:49:23.635Z,86.80
2018-01-14T12:51:51.116Z,87.13
2018-01-14T12:54:18.652Z,87.53
2018-01-14T12:56:46.165Z,87.43
2018-01-14T12:59:13.691Z,87.41
2018-01-14T13:01:41.198Z,87.74
2018-01-14T13:04:08.787Z,87.95
2018-01-14T13:06:36.319Z,87.82
2018-01-14T13:09:03.902Z,87.99
2018-01-14T13:11:31.418Z,88.14
2018-01-14T13:13:58.954Z,88.05
2018-01-14T13:16:26.493Z,87.81
2018-01-14T13:18:54.016Z,87.62
2018-01-14T13:21:21.740Z,87.84
2018-01-14T13:23:49.246Z,88.00
2018-01-14T13:26:16.770Z,87.84
2018-01-14T13:28:44.332Z,87.90
2018-01-14T13:31:11.867Z,87.63
2018-01-14T13:33:39.409Z,87.81
2018-01-14T13:36:06.922Z,87.51
2018-01-14T13:38:34.459Z,87.59
2018-01-14T13:41:02.012Z,87.37
2018-01-14T13:43:29.580Z,86.96
2018-01-14T13:45:57.114Z,87.52
2018-01-14T13:50:58.469Z,87.29
2018-01-14T13:53:25.991Z,87.19
2018-01-14T13:55:53.533Z,87.25
2018-01-14T13:58:21.059Z,87.27
2018-01-14T14:00:48.582Z,87.82
2018-01-14T14:03:16.094Z,87.03
2018-01-14T14:05:43.619Z,87.11
2018-01-14T14:08:11.136Z,87.90
2018-01-14T14:10:38.659Z,87.46
2018-01-14T14:13:06.171Z,87.61
2018-01-14T14:15:33.682Z,87.48
2018-01-14T14:18:01.194Z,88.54
2018-01-14T14:20:28.711Z,88.35
2018-01-14T14:22:56.225Z,87.97
2018-01-14T14:25:23.735Z,88.09
2018-01-14T14:27:51.251Z,88.27
2018-01-14T14:30:18.762Z,88.35
2018-01-14T14:32:46.278Z,88.33
2018-01-14T14:35:13.778Z,88.96
2018-01-14T14:37:41.296Z,88.75
2018-01-14T14:40:08.819Z,88.84
2018-01-14T14:42:36.339Z,89.18
2018-01-14T14:45:03.870Z,89.03
2018-01-14T14:47:31.370Z,89.06
2018-01-14T14:49:59.339Z,89.32
2018-01-14T14:52:26.854Z,89.02
2018-01-14T14:54:54.368Z,89.73
2018-01-14T14:57:22.270Z,89.84
2018-01-14T14:59:49.793Z,89.34
2018-01-14T15:02:17.327Z,89.64
2018-01-14T15:04:44.832Z,89.58
2018-01-14T15:07:12.366Z,89.63
2018-01-14T15:09:39.870Z,89.67
2018-01-14T15:12:07.401Z,89.96
2018-01-14T15:14:34.926Z,90.52
2018-01-14T15:17:02.450Z,90.15
2018-01-14T15:19:29.974Z,90.43
2018-01-14T15:21:57.480Z,90.34
2018-01-14T15:24:25.001Z,90.29
2018-01-14T15:26:52.510Z,90.42
2018-01-14T15:29:20.021Z,90.53
2018-01-14T15:31:47.552Z,91.03
2018-01-14T15:34:15.054Z,90.60
2018-01-14T15:36:42.585Z,91.04
2018-01-14T15:39:10.110Z,91.14
2018-01-14T15:41:37.626Z,91.25
2018-01-14T15:44:05.145Z,91.91
2018-01-14T15:46:32.646Z,91.79
2018-01-14T15:49:00.179Z,92.00
2018-01-14T15:51:27.696Z,92.04
2018-01-14T15:53:55.211Z,92.35
2018-01-14T15:56:22.728Z,91.95
2018-01-14T15:58:50.246Z,91.86
2018-01-14T16:01:17.789Z,92.21
2018-01-14T16:03:45.286Z,91.70
2018-01-14T16:06:12.808Z,91.48
2018-01-14T16:08:40.331Z,91.63
2018-01-14T16:11:07.833Z,91.63
2018-01-14T16:13:35.366Z,91.86
2018-01-14T16:16:02.896Z,92.23
2018-01-14T16:18:30.405Z,92.08
2018-01-14T16:20:57.941Z,92.59
2018-01-14T16:23:25.451Z,92.13
2018-01-14T16:25:52.981Z,91.99
2018-01-14T16:28:20.502Z,91.96
2018-01-14T16:30:48.011Z,91.98
2018-01-14T16:33:15.544Z,92.02
2018-01-14T16:35:43.058Z,91.91
2018-01-14T16:38:10.580Z,92.14
2018-01-14T16:40:38.097Z,92.47
2018-01-14T16:43:05.606Z,92.43
2018-01-14T16:45:33.116Z,92.57
2018-01-14T16:48:00.626Z,92.20
2018-01-14T16:50:28.136Z,92.39
2018-01-14T16:52:55.647Z,92.54
2018-01-14T16:55:23.153Z,92.94
2018-01-14T16:57:50.662Z,93.17
2018-01-14T17:00:18.167Z,92.96
2018-01-14T17:02:45.678Z,93.30
2018-01-14T17:05:13.286Z,92.86
2018-01-14T17:07:40.798Z,92.84
2018-01-14T17:10:08.414Z,93.05
2018-01-14T17:12:35.922Z,93.19
2018-01-14T17:15:03.463Z,93.13
2018-01-14T17:17:30.994Z,93.11
2018-01-14T17:19:58.504Z,92.87
2018-01-14T17:22:26.111Z,93.12
2018-01-14T17:24:53.633Z,93.18
2018-01-14T17:27:21.151Z,92.99
2018-01-14T17:29:48.694Z,93.25
2018-01-14T17:32:16.215Z,93.03
2018-01-14T17:34:43.730Z,93.33
2018-01-14T17:37:11.306Z,93.15
2018-01-14T17:39:38.828Z,92.91
2018-01-14T17:42:06.339Z,92.96
2018-01-14T17:44:33.854Z,92.76
2018-01-14T17:47:01.363Z,93.24
2018-01-14T17:49:32.446Z,92.85
2018-01-14T17:52:02.044Z,92.71
2018-01-14T17:54:29.570Z,93.07
2018-01-14T17:56:57.094Z,92.55
2018-01-14T17:59:24.611Z,92.85
2018-01-14T18:01:52.139Z,92.92
2018-01-14T18:04:19.671Z,92.78
2018-01-14T18:06:47.180Z,92.38
2018-01-14T18:09:14.715Z,92.67
2018-01-14T18:11:42.223Z,92.27
2018-01-14T18:14:09.757Z,92.57
2018-01-14T18:16:37.271Z,92.33
2018-01-14T18:19:04.790Z,92.20
2018-01-14T18:21:32.329Z,92.20
2018-01-14T18:23:59.839Z,92.33
2018-01-14T18:26:27.411Z,92.65
2018-01-14T18:28:54.924Z,92.89
2018-01-14T18:31:22.497Z,92.38
2018-01-14T18:33:49.991Z,92.27
2018-01-14T18:36:17.503Z,92.13
2018-01-14T18:38:45.035Z,92.45
2018-01-14T18:41:12.574Z,92.48
2018-01-14T18:43:40.086Z,92.27
2018-01-14T18:46:10.383Z,92.37
2018-01-14T18:48:37.899Z,92.73
2018-01-14T18:51:05.526Z,92.46
2018-01-14T18:53:33.049Z,92.53
2018-01-14T18:56:00.566Z,92.70
2018-01-14T18:58:28.147Z,92.53
2018-01-14T19:00:55.673Z,92.45
2018-01-14T19:03:23.232Z,92.34
2018-01-14T19:05:50.753Z,92.45
2018-01-14T19:08:18.297Z,92.35
2018-01-14T19:10:45.814Z,92.58
2018-01-14T19:13:13.343Z,92.62
2018-01-14T19:15:40.868Z,92.99
2018-01-14T19:18:08.430Z,93.10
2018-01-14T19:20:36.000Z,92.77
2018-01-14T19:23:03.555Z,93.06
2018-01-14T19:25:31.076Z,93.07
2018-01-14T19:27:58.628Z,93.11
2018-01-14T19:30:26.175Z,93.19
2018-01-14T19:32:53.682Z,93.22
2018-01-14T19:35:21.217Z,93.03
2018-01-14T19:37:48.722Z,93.20
2018-01-14T19:40:16.245Z,93.21
2018-01-14T19:42:43.774Z,93.37
2018-01-14T19:45:11.330Z,93.39
2018-01-14T19:47:38.850Z,93.25
2018-01-14T19:50:06.433Z,93.36
2018-01-14T19:52:33.912Z,93.49
2018-01-14T19:55:01.430Z,93.47
2018-01-14T19:57:28.979Z,93.48
2018-01-14T19:59:56.501Z,93.52
2018-01-14T20:02:24.022Z,94.10
2018-01-14T20:04:51.563Z,93.73
2018-01-14T20:07:19.093Z,93.72
2018-01-14T20:09:46.641Z,94.09
2018-01-14T20:12:14.166Z,93.95
2018-01-14T20:14:41.680Z,94.11
2018-01-14T20:17:09.219Z,94.15
2018-01-14T20:19:36.722Z,94.23
2018-01-14T20:22:04.251Z,94.34
2018-01-14T20:24:31.785Z,94.44
2018-01-14T20:26:59.303Z,94.42
2018-01-14T20:29:26.833Z,94.65
2018-01-14T20:31:54.366Z,95.16
2018-01-14T20:34:21.926Z,94.95
2018-01-14T20:36:49.463Z,95.54
2018-01-14T20:39:16.971Z,94.93
2018-01-14T20:41:44.478Z,94.96
2018-01-14T20:44:17.512Z,95.00
2018-01-14T20:46:45.023Z,94.92
2018-01-14T20:49:12.528Z,95.16
2018-01-14T20:51:40.227Z,95.08
2018-01-14T20:54:07.762Z,95.23
2018-01-14T20:56:35.268Z,95.16
2018-01-14T20:59:02.794Z,95.12
2018-01-14T21:01:30.351Z,95.10
2018-01-14T21:03:57.883Z,95.09
2018-01-14T21:06:25.409Z,95.13
2018-01-14T21:08:52.951Z,95.22
2018-01-14T21:11:20.487Z,95.50
2018-01-14T21:13:48.020Z,95.22
2018-01-14T21:16:15.541Z,95.15
2018-01-14T21:18:43.072Z,95.25
2018-01-14T21:21:10.575Z,95.38
2018-01-14T21:23:38.838Z,95.55
2018-01-14T21:26:06.375Z,95.47
2018-01-14T21:28:33.882Z,95.38
2018-01-14T21:31:01.435Z,95.39
2018-01-14T21:33:28.938Z,95.52
2018-01-14T21:35:56.456Z,95.83
2018-01-14T21:38:23.977Z,95.89
2018-01-14T21:40:51.500Z,96.10
2018-01-14T21:43:19.014Z,96.09
2018-01-14T21:45:47.410Z,95.84
2018-01-14T21:48:14.946Z,96.11
2018-01-14T21:50:42.477Z,95.93
2018-01-14T21:53:10.062Z,95.97
2018-01-14T21:55:37.555Z,95.95
2018-01-14T21:58:05.094Z,96.10
2018-01-14T22:00:32.616Z,96.02
2018-01-14T22:03:00.130Z,96.04
2018-01-14T22:05:27.674Z,96.07
2018-01-14T22:07:55.210Z,96.19
2018-01-14T22:10:22.762Z,96.01
2018-01-14T22:12:50.326Z,96.09
2018-01-14T22:15:17.830Z,96.07
2018-01-14T22:17:45.379Z,96.09
2018-01-14T22:20:12.910Z,96.48
2018-01-14T22:22:40.451Z,96.33
2018-01-14T22:25:07.989Z,96.30
2018-01-14T22:27:35.506Z,96.33
2018-01-14T22:32:29.846Z,96.48
2018-01-14T22:34:57.394Z,96.59
2018-01-14T22:37:24.914Z,96.57
2018-01-14T22:39:52.449Z,96.59
2018-01-14T22:42:19.982Z,96.60
2018-01-14T22:44:47.512Z,96.66
2018-01-14T22:47:15.199Z,96.87
2018-01-14T22:49:42.710Z,96.91
2018-01-14T22:52:10.217Z,96.75
2018-01-14T22:54:37.730Z,96.71
2018-01-14T22:57:05.303Z,96.65
2018-01-14T22:59:32.892Z,96.60
2018-01-14T23:02:00.419Z,96.62
2018-01-14T23:04:27.937Z,96.59
2018-01-14T23:06:55.454Z,96.55
2018-01-14T23:09:22.986Z,96.62
2018-01-14T23:11:50.496Z,96.57
2018-01-14T23:14:18.013Z,96.61
2018-01-14T23:16:45.538Z,96.54
2018-01-14T23:19:13.047Z,96.49
2018-01-14T23:21:40.586Z,96.66
2018-01-14T23:24:08.118Z,96.80
2018-01-14T23:26:35.662Z,96.47
2018-01-14T23:29:03.166Z,96.32
2018-01-14T23:31:30.674Z,96.38
2018-01-14T23:33:58.212Z,96.48
2018-01-14T23:36:25.761Z,96.54
2018-01-14T23:38:53.274Z,96.54
2018-01-14T23:41:20.788Z,96.70
2018-01-14T23:43:48.319Z,96.64
2018-01-14T23:46:15.834Z,96.54
2018-01-14T23:48:43.370Z,96.48
2018-01-14T23:51:11.813Z,96.43
2018-01-14T23:53:39.339Z,96.60
2018-01-14T23:56:06.878Z,96.57
2018-01-14T23:58:34.406Z,96.53
